sensor_id;sensor_type;location;lat;lon;timestamp;temperature;humidity
49032;DHT22;63443;48.366;10.876;2023-04-15T00:01:54;8.20;99.90
49032;DHT22;63443;48.366;10.876;2023-04-15T00:04:20;8.20;99.90
49032;DHT22;63443;48.366;10.876;2023-04-15T00:06:49;8.20;99.90
49032;DHT22;63443;48.366;10.876;2023-04-15T00:09:15;8.20;99.90
49032;DHT22;63443;48.366;10.876;2023-04-15T00:11:41;8.20;99.90
49032;DHT22;63443;48.366;10.876;2023-04-15T00:14:06;8.20;99.90
49032;DHT22;63443;48.366;10.876;2023-04-15T00:16:32;8.20;99.90
49032;DHT22;63443;48.366;10.876;2023-04-15T00:18:57;8.20;99.90
49032;DHT22;63443;48.366;10.876;2023-04-15T00:21:23;8.20;99.90
49032;DHT22;63443;48.366;10.876;2023-04-15T00:23:48;8.20;99.90
49032;DHT22;63443;48.366;10.876;2023-04-15T00:26:16;8.20;99.90
49032;DHT22;63443;48.366;10.876;2023-04-15T00:28:43;8.10;99.90
49032;DHT22;63443;48.366;10.876;2023-04-15T00:31:09;8.10;99.90
49032;DHT22;63443;48.366;10.876;2023-04-15T00:33:35;8.10;99.90
49032;DHT22;63443;48.366;10.876;2023-04-15T00:36:01;8.00;99.90
49032;DHT22;63443;48.366;10.876;2023-04-15T00:38:28;8.00;99.90
49032;DHT22;63443;48.366;10.876;2023-04-15T00:40:53;8.00;99.90
49032;DHT22;63443;48.366;10.876;2023-04-15T00:43:19;7.90;99.90
49032;DHT22;63443;48.366;10.876;2023-04-15T00:45:45;7.90;99.90
49032;DHT22;63443;48.366;10.876;2023-04-15T00:48:11;7.90;99.90
49032;DHT22;63443;48.366;10.876;2023-04-15T00:50:37;7.90;99.90
49032;DHT22;63443;48.366;10.876;2023-04-15T00:53:02;7.90;99.90
49032;DHT22;63443;48.366;10.876;2023-04-15T00:55:28;7.80;99.90
49032;DHT22;63443;48.366;10.876;2023-04-15T00:57:53;7.80;99.90
49032;DHT22;63443;48.366;10.876;2023-04-15T01:00:19;7.80;99.90
49032;DHT22;63443;48.366;10.876;2023-04-15T01:02:45;7.80;99.90
49032;DHT22;63443;48.366;10.876;2023-04-15T01:05:10;7.80;99.90
49032;DHT22;63443;48.366;10.876;2023-04-15T01:07:36;7.80;99.90
49032;DHT22;63443;48.366;10.876;2023-04-15T01:10:02;7.70;99.90
49032;DHT22;63443;48.366;10.876;2023-04-15T01:12:28;7.60;99.90
49032;DHT22;63443;48.366;10.876;2023-04-15T01:14:54;7.60;99.90
49032;DHT22;63443;48.366;10.876;2023-04-15T01:17:20;7.60;99.90
49032;DHT22;63443;48.366;10.876;2023-04-15T01:19:45;7.60;99.90
49032;DHT22;63443;48.366;10.876;2023-04-15T01:22:11;7.50;99.90
49032;DHT22;63443;48.366;10.876;2023-04-15T01:24:36;7.50;99.90
49032;DHT22;63443;48.366;10.876;2023-04-15T01:27:03;7.60;99.90
49032;DHT22;63443;48.366;10.876;2023-04-15T01:29:30;7.60;99.90
49032;DHT22;63443;48.366;10.876;2023-04-15T01:31:56;7.60;99.90
49032;DHT22;63443;48.366;10.876;2023-04-15T01:34:22;7.50;99.90
49032;DHT22;63443;48.366;10.876;2023-04-15T01:36:47;7.50;99.90
49032;DHT22;63443;48.366;10.876;2023-04-15T01:39:13;7.50;99.90
49032;DHT22;63443;48.366;10.876;2023-04-15T01:41:38;7.40;99.90
49032;DHT22;63443;48.366;10.876;2023-04-15T01:44:07;7.40;99.90
49032;DHT22;63443;48.366;10.876;2023-04-15T01:46:32;7.40;99.90
49032;DHT22;63443;48.366;10.876;2023-04-15T01:48:58;7.40;99.90
49032;DHT22;63443;48.366;10.876;2023-04-15T01:51:23;7.40;99.90
49032;DHT22;63443;48.366;10.876;2023-04-15T01:53:49;7.40;99.90
49032;DHT22;63443;48.366;10.876;2023-04-15T01:56:15;7.40;99.90
49032;DHT22;63443;48.366;10.876;2023-04-15T01:58:41;7.30;99.90
49032;DHT22;63443;48.366;10.876;2023-04-15T02:01:06;7.40;99.90
49032;DHT22;63443;48.366;10.876;2023-04-15T02:03:32;7.40;99.90
49032;DHT22;63443;48.366;10.876;2023-04-15T02:05:57;7.40;99.90
49032;DHT22;63443;48.366;10.876;2023-04-15T02:08:23;7.40;99.90
49032;DHT22;63443;48.366;10.876;2023-04-15T02:10:48;7.40;99.90
49032;DHT22;63443;48.366;10.876;2023-04-15T02:13:14;7.40;99.90
49032;DHT22;63443;48.366;10.876;2023-04-15T02:15:45;7.40;99.90
49032;DHT22;63443;48.366;10.876;2023-04-15T02:18:11;7.50;99.90
49032;DHT22;63443;48.366;10.876;2023-04-15T02:20:36;7.50;99.90
49032;DHT22;63443;48.366;10.876;2023-04-15T02:23:02;7.50;99.90
49032;DHT22;63443;48.366;10.876;2023-04-15T02:25:31;7.50;99.90
49032;DHT22;63443;48.366;10.876;2023-04-15T02:27:57;7.60;99.90
49032;DHT22;63443;48.366;10.876;2023-04-15T02:30:22;7.60;99.90
49032;DHT22;63443;48.366;10.876;2023-04-15T02:32:49;7.60;99.90
49032;DHT22;63443;48.366;10.876;2023-04-15T02:35:15;7.60;99.90
49032;DHT22;63443;48.366;10.876;2023-04-15T02:37:43;7.60;99.90
49032;DHT22;63443;48.366;10.876;2023-04-15T02:40:10;7.60;99.90
49032;DHT22;63443;48.366;10.876;2023-04-15T02:42:39;7.50;99.90
49032;DHT22;63443;48.366;10.876;2023-04-15T02:45:05;7.60;99.90
49032;DHT22;63443;48.366;10.876;2023-04-15T02:47:31;7.50;99.90
49032;DHT22;63443;48.366;10.876;2023-04-15T02:49:56;7.40;99.90
49032;DHT22;63443;48.366;10.876;2023-04-15T02:52:24;7.40;99.90
49032;DHT22;63443;48.366;10.876;2023-04-15T02:54:50;7.40;99.90
49032;DHT22;63443;48.366;10.876;2023-04-15T02:57:16;7.40;99.90
49032;DHT22;63443;48.366;10.876;2023-04-15T02:59:41;7.40;99.90
49032;DHT22;63443;48.366;10.876;2023-04-15T03:02:07;7.40;99.90
49032;DHT22;63443;48.366;10.876;2023-04-15T03:04:32;7.30;99.90
49032;DHT22;63443;48.366;10.876;2023-04-15T03:06:58;7.30;99.90
49032;DHT22;63443;48.366;10.876;2023-04-15T03:09:23;7.30;99.90
49032;DHT22;63443;48.366;10.876;2023-04-15T03:11:49;7.30;99.90
49032;DHT22;63443;48.366;10.876;2023-04-15T03:14:16;7.30;99.90
49032;DHT22;63443;48.366;10.876;2023-04-15T03:16:42;7.30;99.90
49032;DHT22;63443;48.366;10.876;2023-04-15T03:19:07;7.30;99.90
49032;DHT22;63443;48.366;10.876;2023-04-15T03:21:33;7.40;99.90
49032;DHT22;63443;48.366;10.876;2023-04-15T03:23:58;7.40;99.90
49032;DHT22;63443;48.366;10.876;2023-04-15T03:26:30;7.40;99.90
49032;DHT22;63443;48.366;10.876;2023-04-15T03:28:56;7.40;99.90
49032;DHT22;63443;48.366;10.876;2023-04-15T03:31:21;7.40;99.90
49032;DHT22;63443;48.366;10.876;2023-04-15T03:33:47;7.50;99.90
49032;DHT22;63443;48.366;10.876;2023-04-15T03:36:12;7.40;99.90
49032;DHT22;63443;48.366;10.876;2023-04-15T03:38:38;7.40;99.90
49032;DHT22;63443;48.366;10.876;2023-04-15T03:41:03;7.30;99.90
49032;DHT22;63443;48.366;10.876;2023-04-15T03:43:29;7.30;99.90
49032;DHT22;63443;48.366;10.876;2023-04-15T03:45:55;7.30;99.90
49032;DHT22;63443;48.366;10.876;2023-04-15T03:48:20;7.20;99.90
49032;DHT22;63443;48.366;10.876;2023-04-15T03:50:46;7.20;99.90
49032;DHT22;63443;48.366;10.876;2023-04-15T03:53:11;7.20;99.90
49032;DHT22;63443;48.366;10.876;2023-04-15T03:55:36;7.20;99.90
49032;DHT22;63443;48.366;10.876;2023-04-15T03:58:02;7.20;99.90
49032;DHT22;63443;48.366;10.876;2023-04-15T04:00:27;7.20;99.90
49032;DHT22;63443;48.366;10.876;2023-04-15T04:02:53;7.20;99.90
49032;DHT22;63443;48.366;10.876;2023-04-15T04:05:18;7.20;99.90
49032;DHT22;63443;48.366;10.876;2023-04-15T04:07:44;7.10;99.90
49032;DHT22;63443;48.366;10.876;2023-04-15T04:10:09;7.10;99.90
49032;DHT22;63443;48.366;10.876;2023-04-15T04:12:35;7.20;99.90
49032;DHT22;63443;48.366;10.876;2023-04-15T04:15:00;7.20;99.90
49032;DHT22;63443;48.366;10.876;2023-04-15T04:17:26;7.20;99.90
49032;DHT22;63443;48.366;10.876;2023-04-15T04:19:51;7.30;99.90
49032;DHT22;63443;48.366;10.876;2023-04-15T04:22:20;7.20;99.90
49032;DHT22;63443;48.366;10.876;2023-04-15T04:24:46;7.20;99.90
49032;DHT22;63443;48.366;10.876;2023-04-15T04:27:11;7.20;99.90
49032;DHT22;63443;48.366;10.876;2023-04-15T04:29:37;7.20;99.90
49032;DHT22;63443;48.366;10.876;2023-04-15T04:32:02;7.10;99.90
49032;DHT22;63443;48.366;10.876;2023-04-15T04:34:28;7.10;99.90
49032;DHT22;63443;48.366;10.876;2023-04-15T04:36:53;7.10;99.90
49032;DHT22;63443;48.366;10.876;2023-04-15T04:39:19;7.00;99.90
49032;DHT22;63443;48.366;10.876;2023-04-15T04:41:44;7.10;99.90
49032;DHT22;63443;48.366;10.876;2023-04-15T04:44:10;7.10;99.90
49032;DHT22;63443;48.366;10.876;2023-04-15T04:46:35;7.00;99.90
49032;DHT22;63443;48.366;10.876;2023-04-15T04:49:01;7.00;99.90
49032;DHT22;63443;48.366;10.876;2023-04-15T04:51:26;7.10;99.90
49032;DHT22;63443;48.366;10.876;2023-04-15T04:53:52;7.00;99.90
49032;DHT22;63443;48.366;10.876;2023-04-15T04:56:18;7.00;99.90
49032;DHT22;63443;48.366;10.876;2023-04-15T04:58:43;7.00;99.90
49032;DHT22;63443;48.366;10.876;2023-04-15T05:01:09;7.00;99.90
49032;DHT22;63443;48.366;10.876;2023-04-15T05:03:34;7.00;99.90
49032;DHT22;63443;48.366;10.876;2023-04-15T05:06:00;7.00;99.90
49032;DHT22;63443;48.366;10.876;2023-04-15T05:08:27;7.00;99.90
49032;DHT22;63443;48.366;10.876;2023-04-15T05:10:52;7.10;99.90
49032;DHT22;63443;48.366;10.876;2023-04-15T05:13:18;7.00;99.90
49032;DHT22;63443;48.366;10.876;2023-04-15T05:15:45;7.10;99.90
49032;DHT22;63443;48.366;10.876;2023-04-15T05:18:11;7.20;99.90
49032;DHT22;63443;48.366;10.876;2023-04-15T05:20:36;7.20;99.90
49032;DHT22;63443;48.366;10.876;2023-04-15T05:23:02;7.20;99.90
49032;DHT22;63443;48.366;10.876;2023-04-15T05:25:27;7.20;99.90
49032;DHT22;63443;48.366;10.876;2023-04-15T05:27:53;7.40;99.90
49032;DHT22;63443;48.366;10.876;2023-04-15T05:30:18;7.30;99.90
49032;DHT22;63443;48.366;10.876;2023-04-15T05:32:44;7.40;99.90
49032;DHT22;63443;48.366;10.876;2023-04-15T05:35:09;7.40;99.90
49032;DHT22;63443;48.366;10.876;2023-04-15T05:37:35;7.40;99.90
49032;DHT22;63443;48.366;10.876;2023-04-15T05:40:00;7.50;99.90
49032;DHT22;63443;48.366;10.876;2023-04-15T05:42:26;7.50;99.90
49032;DHT22;63443;48.366;10.876;2023-04-15T05:44:51;7.50;99.90
49032;DHT22;63443;48.366;10.876;2023-04-15T05:47:17;7.40;99.90
49032;DHT22;63443;48.366;10.876;2023-04-15T05:49:42;7.40;99.90
49032;DHT22;63443;48.366;10.876;2023-04-15T05:52:08;7.30;99.90
49032;DHT22;63443;48.366;10.876;2023-04-15T05:54:33;7.30;99.90
49032;DHT22;63443;48.366;10.876;2023-04-15T05:56:59;7.30;99.90
49032;DHT22;63443;48.366;10.876;2023-04-15T05:59:25;7.20;99.90
49032;DHT22;63443;48.366;10.876;2023-04-15T06:01:51;7.20;99.90
49032;DHT22;63443;48.366;10.876;2023-04-15T06:04:17;7.10;99.90
49032;DHT22;63443;48.366;10.876;2023-04-15T06:06:42;7.10;99.90
49032;DHT22;63443;48.366;10.876;2023-04-15T06:09:08;7.10;99.90
49032;DHT22;63443;48.366;10.876;2023-04-15T06:11:34;7.10;99.90
49032;DHT22;63443;48.366;10.876;2023-04-15T06:13:59;7.10;99.90
49032;DHT22;63443;48.366;10.876;2023-04-15T06:16:25;7.10;99.90
49032;DHT22;63443;48.366;10.876;2023-04-15T06:18:51;7.10;99.90
49032;DHT22;63443;48.366;10.876;2023-04-15T06:21:16;7.20;99.90
49032;DHT22;63443;48.366;10.876;2023-04-15T06:23:43;7.20;99.90
49032;DHT22;63443;48.366;10.876;2023-04-15T06:26:08;7.20;99.90
49032;DHT22;63443;48.366;10.876;2023-04-15T06:28:34;7.20;99.90
49032;DHT22;63443;48.366;10.876;2023-04-15T06:30:59;7.30;99.90
49032;DHT22;63443;48.366;10.876;2023-04-15T06:33:26;7.30;99.90
49032;DHT22;63443;48.366;10.876;2023-04-15T06:35:51;7.30;99.90
49032;DHT22;63443;48.366;10.876;2023-04-15T06:38:17;7.40;99.90
49032;DHT22;63443;48.366;10.876;2023-04-15T06:40:42;7.40;99.90
49032;DHT22;63443;48.366;10.876;2023-04-15T06:43:08;7.40;99.90
49032;DHT22;63443;48.366;10.876;2023-04-15T06:45:34;7.40;99.90
49032;DHT22;63443;48.366;10.876;2023-04-15T06:48:00;7.40;99.90
49032;DHT22;63443;48.366;10.876;2023-04-15T06:50:25;7.50;99.90
49032;DHT22;63443;48.366;10.876;2023-04-15T06:52:52;7.40;99.90
49032;DHT22;63443;48.366;10.876;2023-04-15T06:55:18;7.50;99.90
49032;DHT22;63443;48.366;10.876;2023-04-15T06:57:44;7.40;99.90
49032;DHT22;63443;48.366;10.876;2023-04-15T07:00:09;7.40;99.90
49032;DHT22;63443;48.366;10.876;2023-04-15T07:02:36;7.40;99.90
49032;DHT22;63443;48.366;10.876;2023-04-15T07:05:01;7.40;99.90
49032;DHT22;63443;48.366;10.876;2023-04-15T07:07:27;7.50;99.90
49032;DHT22;63443;48.366;10.876;2023-04-15T07:09:53;7.50;99.90
49032;DHT22;63443;48.366;10.876;2023-04-15T07:12:18;7.50;99.90
49032;DHT22;63443;48.366;10.876;2023-04-15T07:14:44;7.50;99.90
49032;DHT22;63443;48.366;10.876;2023-04-15T07:17:09;7.60;99.90
49032;DHT22;63443;48.366;10.876;2023-04-15T07:19:35;7.60;99.90
49032;DHT22;63443;48.366;10.876;2023-04-15T07:22:01;7.60;99.90
49032;DHT22;63443;48.366;10.876;2023-04-15T07:24:26;7.70;99.90
49032;DHT22;63443;48.366;10.876;2023-04-15T07:26:55;7.80;99.90
49032;DHT22;63443;48.366;10.876;2023-04-15T07:29:22;7.80;99.90
49032;DHT22;63443;48.366;10.876;2023-04-15T07:31:48;7.90;99.90
49032;DHT22;63443;48.366;10.876;2023-04-15T07:34:13;7.90;99.90
49032;DHT22;63443;48.366;10.876;2023-04-15T07:36:38;7.90;99.90
49032;DHT22;63443;48.366;10.876;2023-04-15T07:39:04;8.00;99.90
49032;DHT22;63443;48.366;10.876;2023-04-15T07:41:30;8.10;99.90
49032;DHT22;63443;48.366;10.876;2023-04-15T07:43:56;8.30;99.90
49032;DHT22;63443;48.366;10.876;2023-04-15T07:46:21;8.30;99.90
49032;DHT22;63443;48.366;10.876;2023-04-15T07:48:48;8.40;99.90
49032;DHT22;63443;48.366;10.876;2023-04-15T07:51:15;8.40;99.90
49032;DHT22;63443;48.366;10.876;2023-04-15T07:53:42;8.50;99.90
49032;DHT22;63443;48.366;10.876;2023-04-15T07:56:07;8.50;99.90
49032;DHT22;63443;48.366;10.876;2023-04-15T07:58:32;8.60;99.90
49032;DHT22;63443;48.366;10.876;2023-04-15T08:00:58;8.60;99.90
49032;DHT22;63443;48.366;10.876;2023-04-15T08:03:23;8.60;99.90
49032;DHT22;63443;48.366;10.876;2023-04-15T08:05:49;8.60;99.90
49032;DHT22;63443;48.366;10.876;2023-04-15T08:08:14;8.70;99.90
49032;DHT22;63443;48.366;10.876;2023-04-15T08:10:40;8.70;99.90
49032;DHT22;63443;48.366;10.876;2023-04-15T08:13:06;8.80;99.90
49032;DHT22;63443;48.366;10.876;2023-04-15T08:15:32;8.80;99.90
49032;DHT22;63443;48.366;10.876;2023-04-15T08:17:57;8.90;99.90
49032;DHT22;63443;48.366;10.876;2023-04-15T08:20:24;8.90;99.90
49032;DHT22;63443;48.366;10.876;2023-04-15T08:22:50;9.00;99.90
49032;DHT22;63443;48.366;10.876;2023-04-15T08:25:17;9.00;99.90
49032;DHT22;63443;48.366;10.876;2023-04-15T08:27:42;9.10;99.90
49032;DHT22;63443;48.366;10.876;2023-04-15T08:30:08;9.10;99.90
49032;DHT22;63443;48.366;10.876;2023-04-15T08:32:33;9.10;99.90
49032;DHT22;63443;48.366;10.876;2023-04-15T08:34:59;9.20;99.80
49032;DHT22;63443;48.366;10.876;2023-04-15T08:37:24;9.20;99.80
49032;DHT22;63443;48.366;10.876;2023-04-15T08:39:51;9.20;99.80
49032;DHT22;63443;48.366;10.876;2023-04-15T08:42:16;9.20;99.90
49032;DHT22;63443;48.366;10.876;2023-04-15T08:44:43;9.20;99.90
49032;DHT22;63443;48.366;10.876;2023-04-15T08:47:11;9.30;99.90
49032;DHT22;63443;48.366;10.876;2023-04-15T08:49:38;9.30;99.90
49032;DHT22;63443;48.366;10.876;2023-04-15T08:52:04;9.40;99.90
49032;DHT22;63443;48.366;10.876;2023-04-15T08:54:30;9.50;99.90
49032;DHT22;63443;48.366;10.876;2023-04-15T08:56:56;9.50;99.90
49032;DHT22;63443;48.366;10.876;2023-04-15T08:59:22;9.50;99.90
49032;DHT22;63443;48.366;10.876;2023-04-15T09:01:48;9.50;99.90
49032;DHT22;63443;48.366;10.876;2023-04-15T09:04:14;9.70;99.90
49032;DHT22;63443;48.366;10.876;2023-04-15T09:06:40;9.70;99.90
49032;DHT22;63443;48.366;10.876;2023-04-15T09:09:06;9.80;99.90
49032;DHT22;63443;48.366;10.876;2023-04-15T09:11:32;10.00;99.90
49032;DHT22;63443;48.366;10.876;2023-04-15T09:13:57;10.00;99.80
49032;DHT22;63443;48.366;10.876;2023-04-15T09:16:23;10.00;99.70
49032;DHT22;63443;48.366;10.876;2023-04-15T09:18:48;10.00;99.90
49032;DHT22;63443;48.366;10.876;2023-04-15T09:21:14;10.00;99.90
49032;DHT22;63443;48.366;10.876;2023-04-15T09:23:41;10.00;99.90
49032;DHT22;63443;48.366;10.876;2023-04-15T09:26:18;10.10;99.80
49032;DHT22;63443;48.366;10.876;2023-04-15T09:28:43;10.10;99.50
49032;DHT22;63443;48.366;10.876;2023-04-15T09:31:08;10.20;99.60
49032;DHT22;63443;48.366;10.876;2023-04-15T09:33:35;10.30;99.50
49032;DHT22;63443;48.366;10.876;2023-04-15T09:36:02;10.30;99.20
49032;DHT22;63443;48.366;10.876;2023-04-15T09:38:28;10.30;99.00
49032;DHT22;63443;48.366;10.876;2023-04-15T09:40:55;10.40;98.90
49032;DHT22;63443;48.366;10.876;2023-04-15T09:43:21;10.40;98.80
49032;DHT22;63443;48.366;10.876;2023-04-15T09:45:51;10.40;98.80
49032;DHT22;63443;48.366;10.876;2023-04-15T09:48:17;10.50;98.30
49032;DHT22;63443;48.366;10.876;2023-04-15T09:50:45;10.50;98.40
49032;DHT22;63443;48.366;10.876;2023-04-15T09:53:14;10.60;98.30
49032;DHT22;63443;48.366;10.876;2023-04-15T09:55:43;10.70;98.00
49032;DHT22;63443;48.366;10.876;2023-04-15T09:58:09;10.80;98.00
49032;DHT22;63443;48.366;10.876;2023-04-15T10:00:41;11.00;97.90
49032;DHT22;63443;48.366;10.876;2023-04-15T10:03:07;11.10;97.80
49032;DHT22;63443;48.366;10.876;2023-04-15T10:05:32;11.20;97.30
49032;DHT22;63443;48.366;10.876;2023-04-15T10:07:58;11.40;97.00
49032;DHT22;63443;48.366;10.876;2023-04-15T10:10:24;11.50;96.50
49032;DHT22;63443;48.366;10.876;2023-04-15T10:12:50;11.60;95.20
49032;DHT22;63443;48.366;10.876;2023-04-15T10:15:16;11.70;95.20
49032;DHT22;63443;48.366;10.876;2023-04-15T10:17:43;11.70;94.80
49032;DHT22;63443;48.366;10.876;2023-04-15T10:20:09;11.80;94.60
49032;DHT22;63443;48.366;10.876;2023-04-15T10:22:34;11.90;93.50
49032;DHT22;63443;48.366;10.876;2023-04-15T10:25:00;11.90;93.10
49032;DHT22;63443;48.366;10.876;2023-04-15T10:27:26;12.00;92.80
49032;DHT22;63443;48.366;10.876;2023-04-15T10:29:53;12.00;92.20
49032;DHT22;63443;48.366;10.876;2023-04-15T10:32:19;12.10;91.40
49032;DHT22;63443;48.366;10.876;2023-04-15T10:34:46;12.20;91.50
49032;DHT22;63443;48.366;10.876;2023-04-15T10:37:11;12.30;91.90
49032;DHT22;63443;48.366;10.876;2023-04-15T10:39:40;12.40;90.80
49032;DHT22;63443;48.366;10.876;2023-04-15T10:42:08;12.50;90.30
49032;DHT22;63443;48.366;10.876;2023-04-15T10:44:51;12.60;90.10
49032;DHT22;63443;48.366;10.876;2023-04-15T10:47:21;12.70;90.30
49032;DHT22;63443;48.366;10.876;2023-04-15T10:49:50;12.80;90.10
49032;DHT22;63443;48.366;10.876;2023-04-15T10:52:16;12.80;89.00
49032;DHT22;63443;48.366;10.876;2023-04-15T10:54:42;12.70;90.30
49032;DHT22;63443;48.366;10.876;2023-04-15T10:57:08;12.70;91.00
49032;DHT22;63443;48.366;10.876;2023-04-15T10:59:58;12.60;91.70
49032;DHT22;63443;48.366;10.876;2023-04-15T11:05:08;12.30;92.60
49032;DHT22;63443;48.366;10.876;2023-04-15T11:07:41;12.20;93.00
49032;DHT22;63443;48.366;10.876;2023-04-15T11:12:52;12.10;87.10
49032;DHT22;63443;48.366;10.876;2023-04-15T11:15:38;12.10;82.40
49032;DHT22;63443;48.366;10.876;2023-04-15T11:18:11;12.20;76.70
49032;DHT22;63443;48.366;10.876;2023-04-15T11:20:37;12.20;74.30
49032;DHT22;63443;48.366;10.876;2023-04-15T11:23:03;12.30;70.80
49032;DHT22;63443;48.366;10.876;2023-04-15T11:25:30;12.20;69.50
49032;DHT22;63443;48.366;10.876;2023-04-15T11:27:55;12.20;70.10
49032;DHT22;63443;48.366;10.876;2023-04-15T11:30:22;12.10;70.20
49032;DHT22;63443;48.366;10.876;2023-04-15T11:32:49;12.10;69.30
49032;DHT22;63443;48.366;10.876;2023-04-15T11:35:18;12.20;69.50
49032;DHT22;63443;48.366;10.876;2023-04-15T11:37:43;12.20;70.10
49032;DHT22;63443;48.366;10.876;2023-04-15T11:40:09;12.30;70.10
49032;DHT22;63443;48.366;10.876;2023-04-15T11:42:35;12.30;68.70
49032;DHT22;63443;48.366;10.876;2023-04-15T11:45:10;12.30;68.20
49032;DHT22;63443;48.366;10.876;2023-04-15T11:47:36;12.30;67.00
49032;DHT22;63443;48.366;10.876;2023-04-15T11:50:15;12.30;65.30
49032;DHT22;63443;48.366;10.876;2023-04-15T11:52:56;12.30;65.20
49032;DHT22;63443;48.366;10.876;2023-04-15T11:55:22;12.20;65.50
49032;DHT22;63443;48.366;10.876;2023-04-15T12:00:32;12.00;66.30
49032;DHT22;63443;48.366;10.876;2023-04-15T12:03:16;12.00;67.50
49032;DHT22;63443;48.366;10.876;2023-04-15T12:08:46;11.90;69.70
49032;DHT22;63443;48.366;10.876;2023-04-15T12:11:12;11.80;69.70
49032;DHT22;63443;48.366;10.876;2023-04-15T12:13:42;11.70;70.60
49032;DHT22;63443;48.366;10.876;2023-04-15T12:16:07;11.70;71.20
49032;DHT22;63443;48.366;10.876;2023-04-15T12:18:33;11.60;71.80
49032;DHT22;63443;48.366;10.876;2023-04-15T12:21:03;11.60;72.20
49032;DHT22;63443;48.366;10.876;2023-04-15T12:23:29;11.50;72.80
49032;DHT22;63443;48.366;10.876;2023-04-15T12:25:55;11.40;73.90
49032;DHT22;63443;48.366;10.876;2023-04-15T12:28:21;11.40;74.40
49032;DHT22;63443;48.366;10.876;2023-04-15T12:30:49;11.30;75.10
49032;DHT22;63443;48.366;10.876;2023-04-15T12:33:15;11.30;75.60
49032;DHT22;63443;48.366;10.876;2023-04-15T12:35:41;11.40;76.40
49032;DHT22;63443;48.366;10.876;2023-04-15T12:38:06;11.30;76.50
49032;DHT22;63443;48.366;10.876;2023-04-15T12:40:34;11.30;77.50
49032;DHT22;63443;48.366;10.876;2023-04-15T12:42:59;11.30;77.90
49032;DHT22;63443;48.366;10.876;2023-04-15T12:45:25;11.20;79.00
49032;DHT22;63443;48.366;10.876;2023-04-15T12:47:51;11.10;80.00
49032;DHT22;63443;48.366;10.876;2023-04-15T12:50:16;11.10;80.40
49032;DHT22;63443;48.366;10.876;2023-04-15T12:52:42;11.10;81.20
49032;DHT22;63443;48.366;10.876;2023-04-15T12:55:08;11.10;80.30
49032;DHT22;63443;48.366;10.876;2023-04-15T12:57:33;11.10;80.50
49032;DHT22;63443;48.366;10.876;2023-04-15T12:59:59;11.10;81.20
49032;DHT22;63443;48.366;10.876;2023-04-15T13:02:24;11.10;81.50
49032;DHT22;63443;48.366;10.876;2023-04-15T13:04:52;11.10;80.20
49032;DHT22;63443;48.366;10.876;2023-04-15T13:07:18;11.10;79.10
49032;DHT22;63443;48.366;10.876;2023-04-15T13:09:43;11.10;79.20
49032;DHT22;63443;48.366;10.876;2023-04-15T13:12:09;11.00;78.80
49032;DHT22;63443;48.366;10.876;2023-04-15T13:14:34;11.00;78.70
49032;DHT22;63443;48.366;10.876;2023-04-15T13:17:00;11.00;78.50
49032;DHT22;63443;48.366;10.876;2023-04-15T13:19:27;11.00;78.20
49032;DHT22;63443;48.366;10.876;2023-04-15T13:21:52;11.00;76.40
49032;DHT22;63443;48.366;10.876;2023-04-15T13:24:17;11.00;76.70
49032;DHT22;63443;48.366;10.876;2023-04-15T13:26:43;11.00;77.10
49032;DHT22;63443;48.366;10.876;2023-04-15T13:29:08;11.00;76.90
49032;DHT22;63443;48.366;10.876;2023-04-15T13:31:35;11.00;75.70
49032;DHT22;63443;48.366;10.876;2023-04-15T13:34:01;11.00;75.60
49032;DHT22;63443;48.366;10.876;2023-04-15T13:36:26;11.00;74.80
49032;DHT22;63443;48.366;10.876;2023-04-15T13:38:52;11.00;74.40
49032;DHT22;63443;48.366;10.876;2023-04-15T13:41:17;11.00;76.10
49032;DHT22;63443;48.366;10.876;2023-04-15T13:43:43;10.90;79.60
49032;DHT22;63443;48.366;10.876;2023-04-15T13:46:08;10.90;81.10
49032;DHT22;63443;48.366;10.876;2023-04-15T13:48:34;10.90;81.90
49032;DHT22;63443;48.366;10.876;2023-04-15T13:50:59;10.90;83.00
49032;DHT22;63443;48.366;10.876;2023-04-15T13:53:25;10.80;83.00
49032;DHT22;63443;48.366;10.876;2023-04-15T13:55:51;10.80;83.80
49032;DHT22;63443;48.366;10.876;2023-04-15T13:58:16;10.80;84.10
49032;DHT22;63443;48.366;10.876;2023-04-15T14:00:42;10.80;84.80
49032;DHT22;63443;48.366;10.876;2023-04-15T14:03:07;10.80;85.00
49032;DHT22;63443;48.366;10.876;2023-04-15T14:05:33;10.80;85.30
49032;DHT22;63443;48.366;10.876;2023-04-15T14:07:58;10.80;84.40
49032;DHT22;63443;48.366;10.876;2023-04-15T14:10:24;10.80;83.20
49032;DHT22;63443;48.366;10.876;2023-04-15T14:12:50;10.70;84.40
49032;DHT22;63443;48.366;10.876;2023-04-15T14:15:15;10.60;85.60
49032;DHT22;63443;48.366;10.876;2023-04-15T14:17:41;10.50;85.70
49032;DHT22;63443;48.366;10.876;2023-04-15T14:20:07;10.40;85.50
49032;DHT22;63443;48.366;10.876;2023-04-15T14:22:32;10.40;87.90
49032;DHT22;63443;48.366;10.876;2023-04-15T14:24:58;10.40;90.30
49032;DHT22;63443;48.366;10.876;2023-04-15T14:27:24;10.40;90.90
49032;DHT22;63443;48.366;10.876;2023-04-15T14:29:49;10.30;91.10
49032;DHT22;63443;48.366;10.876;2023-04-15T14:32:14;10.30;90.70
49032;DHT22;63443;48.366;10.876;2023-04-15T14:34:40;10.30;89.70
49032;DHT22;63443;48.366;10.876;2023-04-15T14:37:06;10.30;88.80
49032;DHT22;63443;48.366;10.876;2023-04-15T14:39:31;10.30;89.10
49032;DHT22;63443;48.366;10.876;2023-04-15T14:41:57;10.30;87.40
49032;DHT22;63443;48.366;10.876;2023-04-15T14:44:23;10.30;91.30
49032;DHT22;63443;48.366;10.876;2023-04-15T14:46:48;10.20;93.60
49032;DHT22;63443;48.366;10.876;2023-04-15T14:49:15;10.20;95.50
49032;DHT22;63443;48.366;10.876;2023-04-15T14:51:40;10.20;95.20
49032;DHT22;63443;48.366;10.876;2023-04-15T14:54:05;10.20;93.60
49032;DHT22;63443;48.366;10.876;2023-04-15T14:56:31;10.20;93.20
49032;DHT22;63443;48.366;10.876;2023-04-15T14:58:56;10.10;94.10
49032;DHT22;63443;48.366;10.876;2023-04-15T15:01:22;10.00;94.30
49032;DHT22;63443;48.366;10.876;2023-04-15T15:03:48;9.90;94.20
49032;DHT22;63443;48.366;10.876;2023-04-15T15:06:13;9.80;94.30
49032;DHT22;63443;48.366;10.876;2023-04-15T15:08:39;9.90;94.20
49032;DHT22;63443;48.366;10.876;2023-04-15T15:11:04;9.90;94.10
49032;DHT22;63443;48.366;10.876;2023-04-15T15:13:30;9.90;94.10
49032;DHT22;63443;48.366;10.876;2023-04-15T15:15:55;10.00;94.00
49032;DHT22;63443;48.366;10.876;2023-04-15T15:18:21;10.00;93.70
49032;DHT22;63443;48.366;10.876;2023-04-15T15:20:47;10.00;94.20
49032;DHT22;63443;48.366;10.876;2023-04-15T15:23:12;9.90;94.00
49032;DHT22;63443;48.366;10.876;2023-04-15T15:25:38;9.90;94.30
49032;DHT22;63443;48.366;10.876;2023-04-15T15:28:03;9.80;94.60
49032;DHT22;63443;48.366;10.876;2023-04-15T15:30:29;9.70;94.80